createdAt,value
2022-08-14T00:05:07.220Z,2.95
2022-08-14T00:10:52.868Z,2.98
2022-08-14T00:16:11.121Z,2.95
2022-08-14T00:21:45.300Z,2.95
2022-08-14T00:27:17.121Z,2.98
2022-08-14T00:38:21.338Z,2.98
2022-08-14T00:43:53.156Z,2.98
2022-08-14T00:49:24.685Z,2.98
2022-08-14T00:54:57.753Z,2.98
2022-08-14T01:00:37.099Z,2.98
2022-08-14T01:11:35.337Z,2.95
2022-08-14T01:17:04.704Z,2.95
2022-08-14T01:22:36.983Z,2.98
2022-08-14T01:28:08.414Z,2.98
2022-08-14T01:34:00.035Z,2.95
2022-08-14T01:39:12.508Z,2.98
2022-08-14T01:44:44.528Z,2.98
2022-08-14T01:50:15.953Z,2.95
2022-08-14T01:55:47.907Z,2.95
2022-08-14T02:01:20.021Z,2.98
2022-08-14T02:06:51.617Z,2.95
2022-08-14T02:12:26.473Z,2.98
2022-08-14T02:17:55.264Z,2.98
2022-08-14T02:23:32.061Z,2.98
2022-08-14T02:28:59.558Z,2.98
2022-08-14T02:34:31.161Z,2.95
2022-08-14T02:40:05.478Z,2.98
2022-08-14T02:45:38.747Z,2.98
2022-08-14T02:51:06.557Z,2.95
2022-08-14T02:57:15.477Z,2.98
2022-08-14T03:02:16.335Z,2.95
2022-08-14T03:07:41.600Z,2.95
2022-08-14T03:13:19.161Z,2.95
2022-08-14T03:18:45.256Z,2.95
2022-08-14T03:24:23.012Z,2.95
2022-08-14T03:29:49.698Z,2.95
2022-08-14T03:35:21.615Z,2.98
2022-08-14T03:40:53.325Z,2.98
2022-08-14T03:46:39.076Z,2.98
2022-08-14T03:51:58.171Z,2.44
2022-08-14T03:57:29.133Z,2.44
2022-08-14T04:03:01.050Z,2.46
2022-08-14T04:08:32.946Z,2.44
2022-08-14T04:14:04.578Z,2.44
2022-08-14T04:19:36.711Z,2.44
2022-08-14T04:25:08.759Z,2.44
2022-08-14T04:30:42.144Z,2.42
2022-08-14T04:36:15.829Z,2.46
2022-08-14T04:41:44.923Z,2.44
2022-08-14T04:47:16.574Z,2.46
2022-08-14T04:52:48.243Z,2.47
2022-08-14T04:58:21.746Z,2.47
2022-08-14T05:03:52.092Z,2.46
2022-08-14T05:09:24.035Z,2.44
2022-08-14T05:14:56.124Z,2.44
2022-08-14T05:21:04.408Z,2.44
2022-08-14T05:26:00.022Z,2.44
2022-08-14T05:31:39.739Z,2.46
2022-08-14T05:37:03.666Z,2.46
2022-08-14T05:42:35.504Z,2.47
2022-08-14T05:48:07.100Z,2.47
2022-08-14T05:53:42.293Z,2.49
2022-08-14T06:04:43.289Z,2.46
2022-08-14T06:10:15.635Z,2.49
2022-08-14T06:15:47.876Z,2.47
2022-08-14T06:21:20.039Z,2.49
2022-08-14T06:26:56.738Z,2.47
2022-08-14T06:32:37.419Z,2.51
2022-08-14T06:37:56.444Z,2.53
2022-08-14T06:43:31.779Z,2.49
2022-08-14T06:54:32.108Z,2.51
2022-08-14T07:00:03.798Z,2.49
2022-08-14T07:05:35.903Z,2.51
2022-08-14T07:11:07.630Z,2.51
2022-08-14T07:16:39.801Z,2.51
2022-08-14T07:22:17.803Z,2.51
2022-08-14T07:27:43.499Z,2.51
2022-08-14T07:33:15.525Z,2.49
2022-08-14T07:38:52.235Z,2.49
2022-08-14T07:44:29.283Z,2.49
2022-08-14T07:49:50.634Z,2.49
2022-08-14T07:55:22.753Z,2.47
2022-08-14T08:00:56.456Z,2.49
2022-08-14T08:06:26.128Z,2.47
2022-08-14T08:11:57.768Z,2.47
2022-08-14T08:17:34.686Z,2.49
2022-08-14T08:23:06.319Z,2.49
2022-08-14T08:28:32.986Z,2.49
2022-08-14T08:34:04.937Z,2.49
2022-08-14T08:45:12.007Z,2.49
2022-08-14T08:52:59.713Z,2.49
2022-08-14T08:58:31.362Z,2.49
2022-08-14T09:04:03.076Z,2.47
2022-08-14T09:09:34.829Z,2.49
2022-08-14T09:15:11.403Z,2.47
2022-08-14T09:20:37.848Z,2.47
2022-08-14T09:26:21.325Z,2.47
2022-08-14T09:37:13.788Z,2.49
2022-08-14T09:42:50.143Z,2.47
2022-08-14T09:48:17.042Z,2.47
2022-08-14T09:54:19.355Z,2.46
2022-08-14T09:59:20.422Z,2.47
2022-08-14T10:04:52.399Z,2.46
2022-08-14T10:10:24.190Z,2.46
2022-08-14T10:15:55.836Z,2.47
2022-08-14T10:21:27.741Z,2.47
2022-08-14T10:27:00.960Z,2.47
2022-08-14T10:32:40.037Z,2.47
2022-08-14T10:38:03.313Z,2.46
2022-08-14T10:43:34.994Z,2.47
2022-08-14T10:49:06.728Z,2.47
2022-08-14T10:54:40.210Z,2.46
2022-08-14T11:00:09.830Z,2.47
2022-08-14T11:05:41.774Z,2.47
2022-08-14T11:11:13.709Z,2.47
2022-08-14T11:16:53.241Z,2.49
2022-08-14T11:22:52.944Z,2.47
2022-08-14T11:27:49.080Z,2.47
2022-08-14T11:33:20.640Z,2.49
2022-08-14T11:38:53.879Z,2.46
2022-08-14T11:44:46.672Z,2.47
2022-08-14T11:49:56.000Z,2.46
2022-08-14T11:55:27.864Z,2.47
2022-08-14T12:00:59.622Z,2.47
2022-08-14T12:06:38.513Z,2.46
2022-08-14T12:12:03.032Z,2.47
2022-08-14T12:17:38.238Z,2.47
2022-08-14T12:23:06.696Z,2.46
2022-08-14T12:28:59.692Z,2.47
2022-08-14T12:34:10.505Z,2.46
2022-08-14T12:39:42.179Z,2.47
2022-08-14T12:45:17.256Z,2.47
2022-08-14T12:50:49.684Z,2.46
2022-08-14T12:56:22.732Z,2.47
2022-08-14T13:02:03.110Z,2.47
2022-08-14T13:07:21.037Z,2.46
2022-08-14T13:13:12.656Z,2.47
2022-08-14T13:18:24.927Z,2.47
2022-08-14T13:23:56.582Z,2.46
2022-08-14T13:29:28.396Z,2.47
2022-08-14T13:35:00.319Z,2.47
2022-08-14T13:40:32.882Z,2.47
2022-08-14T13:46:03.846Z,2.47
2022-08-14T13:51:35.377Z,2.46
2022-08-14T13:57:06.986Z,2.47
2022-08-14T14:02:38.700Z,2.46
2022-08-14T14:08:18.366Z,2.47
2022-08-14T14:19:14.085Z,2.46
2022-08-14T14:24:45.904Z,2.47
2022-08-14T14:30:51.989Z,2.46
2022-08-14T14:35:49.322Z,2.47
2022-08-14T14:43:41.768Z,2.47
2022-08-14T14:49:13.835Z,2.47
2022-08-14T14:54:45.456Z,2.46
2022-08-14T15:00:19.378Z,2.47
2022-08-14T15:05:49.229Z,2.46
2022-08-14T15:11:20.814Z,2.47
2022-08-14T15:16:52.645Z,2.47
2022-08-14T15:22:25.238Z,2.47
2022-08-14T15:27:56.203Z,2.47
2022-08-14T15:33:29.449Z,2.49
2022-08-14T15:39:00.897Z,2.47
2022-08-14T15:44:36.525Z,2.46
2022-08-14T15:50:04.446Z,2.47
2022-08-14T15:55:36.308Z,2.46
2022-08-14T16:01:08.012Z,2.47
2022-08-14T16:06:39.867Z,2.46
2022-08-14T16:12:11.760Z,2.46
2022-08-14T16:23:15.470Z,2.47
2022-08-14T16:28:47.033Z,2.47
2022-08-14T16:31:11.156Z,2.46
2022-08-14T16:36:50.721Z,2.47
2022-08-14T16:42:38.961Z,2.47
2022-08-14T16:47:47.757Z,2.46
2022-08-14T16:53:18.167Z,2.47
2022-08-14T16:58:50.132Z,2.46
2022-08-14T17:04:25.213Z,2.46
2022-08-14T17:09:54.699Z,2.46
2022-08-14T17:15:25.431Z,2.47
2022-08-14T18:11:47.327Z,2.53
2022-08-14T18:17:19.020Z,2.49
2022-08-14T18:22:50.397Z,2.49
2022-08-14T18:28:51.788Z,2.49
2022-08-14T18:33:54.215Z,2.49
2022-08-14T18:39:26.117Z,2.49
2022-08-14T18:44:57.798Z,3.06
2022-08-14T18:50:30.921Z,3.01
2022-08-14T18:56:09.736Z,3.03
2022-08-14T19:01:33.343Z,3.03
2022-08-14T19:07:04.983Z,3.03
2022-08-14T19:12:41.124Z,3.03
2022-08-14T19:18:13.882Z,3.03
2022-08-14T19:23:43.308Z,3.03
2022-08-14T19:29:10.909Z,3.03
2022-08-14T19:34:52.350Z,3.01
2022-08-14T19:40:19.306Z,3.03
2022-08-14T19:45:45.349Z,3.06
2022-08-14T19:51:17.154Z,3.03
2022-08-14T19:56:48.408Z,3.03
2022-08-14T20:04:46.353Z,3.03
2022-08-14T20:11:06.964Z,3.06
2022-08-14T20:15:47.152Z,3.01
2022-08-14T20:21:15.389Z,3.03
2022-08-14T20:26:47.405Z,3.03
2022-08-14T20:32:18.949Z,3.03
2022-08-14T20:34:51.221Z,3.03
2022-08-14T20:40:23.419Z,3.03
2022-08-14T20:45:45.501Z,3.06
2022-08-14T20:51:17.135Z,3.03
2022-08-14T20:56:48.928Z,3.03
2022-08-14T21:02:28.874Z,3.03
2022-08-14T21:07:53.290Z,3.01
2022-08-14T21:13:55.875Z,3.06
2022-08-14T21:18:55.397Z,3.03
2022-08-14T21:24:46.857Z,3.03
2022-08-14T21:29:59.373Z,3.03
2022-08-14T21:35:31.500Z,3.01
2022-08-14T21:41:03.050Z,3.01
2022-08-14T21:46:34.920Z,3.03
2022-08-14T21:52:48.855Z,3.01
2022-08-14T21:58:46.214Z,3.03
2022-08-14T22:03:10.230Z,3.03
2022-08-14T22:08:45.833Z,3.03
2022-08-14T22:14:25.150Z,3.03
2022-08-14T22:19:55.048Z,3.01
2022-08-14T22:25:17.438Z,3.01
2022-08-14T22:30:54.656Z,3.01
2022-08-14T22:36:25.223Z,3.01
2022-08-14T22:41:55.955Z,3.01
2022-08-14T22:47:24.972Z,3.03
2022-08-14T22:52:56.128Z,3.03
2022-08-14T22:58:30.131Z,3.03
2022-08-14T23:03:59.917Z,3.03
2022-08-14T23:09:35.317Z,3.01
2022-08-14T23:15:03.866Z,3.03
2022-08-14T23:22:55.151Z,3.03
2022-08-14T23:28:33.308Z,3.03
2022-08-14T23:33:58.511Z,3.01
2022-08-14T23:39:30.874Z,3.01
2022-08-14T23:45:02.133Z,3.03
2022-08-14T23:50:38.154Z,3.03
2022-08-14T23:56:05.918Z,3.03
